createdAt,value
2019-04-26T00:00:10.088Z,0.30
2019-04-26T00:01:10.010Z,0.60
2019-04-26T00:02:09.950Z,0.40
2019-04-26T00:03:10.224Z,0.50
2019-04-26T00:04:10.200Z,0.20
2019-04-26T00:05:10.167Z,0.30
2019-04-26T00:06:10.198Z,0.10
2019-04-26T00:07:09.675Z,0.20
2019-04-26T00:08:09.290Z,0.10
2019-04-26T00:09:09.412Z,0.20
2019-04-26T00:10:10.352Z,0.20
2019-04-26T00:11:11.912Z,0.00
2019-04-26T00:12:09.835Z,0.50
2019-04-26T00:13:09.844Z,0.10
2019-04-26T00:14:09.872Z,0.20
2019-04-26T00:15:10.085Z,0.10
2019-04-26T00:16:08.979Z,0.20
2019-04-26T00:17:09.240Z,0.20
2019-04-26T00:18:08.961Z,0.20
2019-04-26T00:19:09.418Z,0.10
2019-04-26T00:20:08.932Z,0.30
2019-04-26T00:21:09.615Z,0.30
2019-04-26T00:22:08.916Z,0.30
2019-04-26T00:23:10.626Z,0.10
2019-04-26T00:24:08.914Z,0.30
2019-04-26T00:25:08.903Z,0.20
2019-04-26T00:26:08.897Z,0.30
2019-04-26T00:27:08.873Z,0.40
2019-04-26T00:28:08.849Z,0.40
2019-04-26T00:29:08.865Z,0.50
2019-04-26T00:30:08.847Z,1.40
2019-04-26T00:31:08.812Z,32.50
2019-04-26T00:32:08.796Z,59.20
2019-04-26T00:33:08.786Z,41.90
2019-04-26T00:34:08.774Z,21.60
2019-04-26T00:35:08.797Z,2.10
2019-04-26T00:36:08.756Z,1.10
2019-04-26T00:37:08.742Z,0.50
2019-04-26T00:38:08.734Z,0.80
2019-04-26T00:39:08.719Z,0.80
2019-04-26T00:40:08.744Z,1.00
2019-04-26T00:41:08.694Z,0.70
2019-04-26T00:42:08.714Z,1.10
2019-04-26T00:43:08.669Z,0.80
2019-04-26T00:44:08.661Z,0.30
2019-04-26T00:45:08.688Z,1.30
2019-04-26T00:46:08.638Z,0.50
2019-04-26T00:47:08.626Z,0.30
2019-04-26T00:48:08.613Z,1.50
2019-04-26T00:49:08.636Z,1.10
2019-04-26T00:50:08.682Z,0.80
2019-04-26T00:51:08.585Z,1.00
2019-04-26T00:52:08.583Z,0.80
2019-04-26T00:53:08.563Z,0.70
2019-04-26T00:54:08.546Z,0.90
2019-04-26T00:55:08.536Z,0.90
2019-04-26T00:56:08.565Z,1.10
2019-04-26T00:57:08.528Z,0.70
2019-04-26T00:58:08.516Z,1.20
2019-04-26T00:59:08.498Z,0.80
2019-04-26T01:00:08.481Z,1.30
2019-04-26T01:01:08.504Z,0.90
2019-04-26T01:02:08.476Z,0.70
2019-04-26T01:03:08.460Z,0.60
2019-04-26T01:04:08.434Z,0.60
2019-04-26T01:05:08.423Z,0.70
2019-04-26T01:06:08.439Z,0.40
2019-04-26T01:07:08.402Z,0.70
2019-04-26T01:08:08.388Z,0.50
2019-04-26T01:09:08.384Z,1.10
2019-04-26T01:10:08.376Z,0.50
2019-04-26T01:11:08.375Z,1.10
2019-04-26T01:12:08.346Z,0.50
2019-04-26T01:13:08.342Z,0.80
2019-04-26T01:14:08.329Z,0.50
2019-04-26T01:15:08.344Z,0.50
2019-04-26T01:16:08.504Z,0.70
2019-04-26T01:17:08.288Z,0.70
2019-04-26T01:18:08.379Z,0.30
2019-04-26T01:19:08.264Z,0.50
2019-04-26T01:20:08.253Z,0.30
2019-04-26T01:21:08.284Z,0.60
2019-04-26T01:22:08.398Z,0.70
2019-04-26T01:23:08.220Z,0.70
2019-04-26T01:24:08.296Z,0.30
2019-04-26T01:25:08.198Z,0.60
2019-04-26T01:26:08.188Z,0.80
2019-04-26T01:27:08.199Z,0.50
2019-04-26T01:28:08.168Z,0.90
2019-04-26T01:29:08.173Z,0.80
2019-04-26T01:30:08.148Z,0.80
2019-04-26T01:31:08.159Z,0.70
2019-04-26T01:32:08.148Z,0.50
2019-04-26T01:33:08.117Z,0.80
2019-04-26T01:34:08.097Z,0.90
2019-04-26T01:35:08.092Z,0.60
2019-04-26T01:36:13.115Z,1.10
2019-04-26T01:37:09.098Z,0.50
2019-04-26T01:38:08.055Z,0.70
2019-04-26T01:39:08.069Z,0.70
2019-04-26T01:40:08.031Z,1.00
2019-04-26T01:41:08.026Z,0.30
2019-04-26T01:42:08.040Z,0.40
2019-04-26T01:43:08.002Z,0.70
2019-04-26T01:44:07.991Z,0.90
2019-04-26T01:45:07.983Z,0.50
2019-04-26T01:46:07.969Z,1.10
2019-04-26T01:47:07.983Z,1.00
2019-04-26T01:48:07.942Z,0.80
2019-04-26T01:49:07.938Z,1.00
2019-04-26T01:50:07.926Z,0.70
2019-04-26T01:51:07.912Z,0.70
2019-04-26T01:52:07.944Z,0.80
2019-04-26T01:53:07.888Z,0.60
2019-04-26T01:54:07.881Z,0.70
2019-04-26T01:55:07.903Z,0.40
2019-04-26T01:56:07.903Z,0.70
2019-04-26T01:57:07.883Z,0.40
2019-04-26T01:58:07.833Z,0.60
2019-04-26T01:59:07.827Z,1.30
2019-04-26T02:00:07.818Z,1.30
2019-04-26T02:01:07.807Z,1.20
2019-04-26T02:02:07.831Z,0.80
2019-04-26T02:03:07.829Z,1.20
2019-04-26T02:04:07.779Z,1.20
2019-04-26T02:05:07.784Z,0.90
2019-04-26T02:06:07.762Z,1.00
2019-04-26T02:07:07.739Z,0.60
2019-04-26T02:08:07.767Z,0.80
2019-04-26T02:09:07.715Z,0.80
2019-04-26T02:10:07.715Z,0.80
2019-04-26T02:11:07.694Z,1.00
2019-04-26T02:12:07.680Z,0.80
2019-04-26T02:13:07.696Z,1.20
2019-04-26T02:14:07.657Z,1.00
2019-04-26T02:15:07.648Z,1.80
2019-04-26T02:16:07.635Z,1.20
2019-04-26T02:17:07.631Z,0.60
2019-04-26T02:18:07.664Z,0.80
2019-04-26T02:19:07.638Z,1.10
2019-04-26T02:20:07.593Z,1.00
2019-04-26T02:21:07.581Z,0.70
2019-04-26T02:22:07.624Z,1.20
2019-04-26T02:23:07.634Z,0.40
2019-04-26T02:24:07.547Z,0.70
2019-04-26T02:25:07.588Z,1.10
2019-04-26T02:26:07.529Z,0.70
2019-04-26T02:27:07.569Z,0.50
2019-04-26T02:28:07.536Z,0.50
2019-04-26T02:29:07.616Z,1.10
2019-04-26T02:30:07.482Z,1.00
2019-04-26T02:31:07.567Z,1.30
2019-04-26T02:32:07.467Z,1.40
2019-04-26T02:33:07.489Z,0.70
2019-04-26T02:34:07.466Z,1.50
2019-04-26T02:35:07.452Z,0.90
2019-04-26T02:36:07.422Z,1.20
2019-04-26T02:37:07.480Z,0.80
2019-04-26T02:38:07.400Z,0.80
2019-04-26T02:39:07.446Z,0.90
2019-04-26T02:40:07.370Z,0.90
2019-04-26T02:41:07.381Z,1.30
2019-04-26T02:42:07.349Z,0.80
2019-04-26T02:43:07.379Z,1.40
2019-04-26T02:44:07.358Z,0.70
2019-04-26T02:45:07.319Z,1.30
2019-04-26T02:46:07.302Z,1.00
2019-04-26T02:47:07.292Z,1.60
2019-04-26T02:48:07.281Z,1.00
2019-04-26T02:49:07.334Z,0.80
2019-04-26T02:50:07.292Z,1.50
2019-04-26T02:51:07.258Z,0.60
2019-04-26T02:52:07.238Z,2.00
2019-04-26T02:53:07.236Z,0.90
2019-04-26T02:54:07.244Z,0.90
2019-04-26T02:55:07.237Z,1.10
2019-04-26T02:56:07.209Z,1.20
2019-04-26T02:57:07.185Z,1.30
2019-04-26T02:58:07.174Z,1.20
2019-04-26T02:59:07.206Z,1.00
2019-04-26T03:00:07.160Z,0.90
2019-04-26T03:01:07.137Z,1.60
2019-04-26T03:02:07.164Z,1.20
2019-04-26T03:03:07.118Z,0.90
2019-04-26T03:04:07.112Z,1.40
2019-04-26T03:05:07.121Z,1.40
2019-04-26T03:06:07.087Z,1.00
2019-04-26T03:07:07.072Z,0.80
2019-04-26T03:08:07.067Z,1.10
2019-04-26T03:09:07.082Z,1.30
2019-04-26T03:10:07.066Z,1.80
2019-04-26T03:11:07.030Z,1.30
2019-04-26T03:12:07.024Z,1.20
2019-04-26T03:13:07.021Z,1.00
2019-04-26T03:14:07.006Z,1.30
2019-04-26T03:15:13.893Z,1.00
2019-04-26T03:16:08.086Z,1.40
2019-04-26T03:17:06.961Z,1.50
2019-04-26T03:18:06.968Z,1.10
2019-04-26T03:19:06.944Z,1.00
2019-04-26T03:20:06.988Z,1.50
2019-04-26T03:21:06.920Z,0.70
2019-04-26T03:22:06.918Z,1.20
2019-04-26T03:23:06.902Z,1.20
2019-04-26T03:24:06.895Z,1.20
2019-04-26T03:25:06.922Z,1.10
2019-04-26T03:26:06.862Z,1.50
2019-04-26T03:27:06.854Z,0.70
2019-04-26T03:28:06.851Z,1.30
2019-04-26T03:29:06.830Z,1.20
2019-04-26T03:30:19.349Z,1.60
2019-04-26T03:31:07.843Z,1.50
2019-04-26T03:32:06.910Z,0.50
2019-04-26T03:33:06.839Z,1.30
2019-04-26T03:34:06.946Z,0.80
2019-04-26T03:35:06.798Z,1.40
2019-04-26T03:36:06.790Z,1.70
2019-04-26T03:37:20.454Z,1.20
2019-04-26T03:38:07.751Z,0.80
2019-04-26T03:39:06.725Z,1.20
2019-04-26T03:40:06.737Z,1.00
2019-04-26T03:41:06.734Z,1.60
2019-04-26T03:42:06.691Z,1.60
2019-04-26T03:43:06.681Z,1.40
2019-04-26T03:44:06.682Z,1.50
2019-04-26T03:45:06.661Z,1.60
2019-04-26T03:46:06.681Z,0.80
2019-04-26T03:47:06.636Z,1.40
2019-04-26T03:48:06.633Z,1.10
2019-04-26T03:49:06.617Z,1.60
2019-04-26T03:50:06.614Z,1.20
2019-04-26T03:51:06.625Z,0.90
2019-04-26T03:52:06.581Z,0.70
2019-04-26T03:53:06.580Z,1.50
2019-04-26T03:54:06.567Z,1.10
2019-04-26T03:55:06.555Z,0.70
2019-04-26T03:56:06.575Z,1.20
2019-04-26T03:57:06.533Z,0.30
2019-04-26T03:58:06.518Z,1.00
2019-04-26T03:59:06.509Z,0.70
2019-04-26T04:00:06.499Z,0.90
2019-04-26T04:01:06.512Z,1.00
2019-04-26T04:02:06.481Z,1.70
2019-04-26T04:03:06.476Z,1.00
2019-04-26T04:04:06.451Z,0.70
2019-04-26T04:05:06.439Z,1.30
2019-04-26T04:06:06.458Z,0.80
2019-04-26T04:07:06.423Z,1.50
2019-04-26T04:08:06.413Z,1.40
2019-04-26T04:09:06.409Z,1.80
2019-04-26T04:10:06.383Z,1.20
2019-04-26T04:11:06.407Z,1.40
2019-04-26T04:12:11.796Z,0.70
2019-04-26T04:13:07.360Z,0.70
2019-04-26T04:14:06.532Z,1.10
2019-04-26T04:15:06.333Z,1.10
2019-04-26T04:16:06.325Z,1.20
2019-04-26T04:17:06.354Z,0.60
2019-04-26T04:18:06.293Z,0.80
2019-04-26T04:19:06.283Z,0.80
2019-04-26T04:20:06.273Z,1.30
2019-04-26T04:21:06.280Z,1.10
2019-04-26T04:22:06.286Z,1.30
2019-04-26T04:23:06.475Z,0.90
2019-04-26T04:24:06.234Z,0.90
2019-04-26T04:25:06.327Z,0.80
2019-04-26T04:26:06.209Z,1.00
2019-04-26T04:27:06.297Z,0.80
2019-04-26T04:28:06.190Z,1.00
2019-04-26T04:29:06.196Z,1.00
2019-04-26T04:30:06.160Z,1.20
2019-04-26T04:31:06.162Z,1.10
2019-04-26T04:32:06.168Z,0.90
2019-04-26T04:33:06.138Z,0.80
2019-04-26T04:34:06.132Z,0.50
2019-04-26T04:35:06.870Z,0.90
2019-04-26T04:36:06.105Z,0.90
2019-04-26T04:37:06.151Z,0.50
2019-04-26T04:38:09.480Z,0.90
2019-04-26T04:39:12.445Z,1.30
2019-04-26T04:40:07.056Z,0.90
2019-04-26T04:41:08.367Z,1.30
2019-04-26T04:42:06.060Z,1.00
2019-04-26T04:43:06.163Z,0.70
2019-04-26T04:44:06.011Z,1.10
2019-04-26T04:45:06.002Z,0.20
2019-04-26T04:46:06.102Z,0.60
2019-04-26T04:47:22.664Z,0.60
2019-04-26T04:48:06.981Z,1.00
2019-04-26T04:49:05.960Z,1.20
2019-04-26T04:50:06.080Z,1.20
2019-04-26T04:51:06.154Z,1.30
2019-04-26T04:52:05.942Z,1.00
2019-04-26T04:53:05.906Z,0.90
2019-04-26T04:54:05.926Z,0.80
2019-04-26T04:55:07.967Z,0.50
2019-04-26T04:56:05.873Z,0.80
2019-04-26T04:57:05.896Z,1.00
2019-04-26T04:58:05.856Z,0.80
2019-04-26T04:59:05.838Z,0.60
2019-04-26T05:00:05.829Z,0.70
2019-04-26T05:01:05.822Z,0.80
2019-04-26T05:02:05.910Z,0.50
2019-04-26T05:03:05.992Z,0.70
2019-04-26T05:04:06.055Z,1.30
2019-04-26T05:05:05.777Z,0.90
2019-04-26T05:06:07.641Z,1.00
2019-04-26T05:07:05.759Z,1.10
2019-04-26T05:08:07.125Z,0.60
2019-04-26T05:09:05.765Z,1.00
2019-04-26T05:10:05.726Z,0.70
2019-04-26T05:11:05.708Z,0.50
2019-04-26T05:12:05.692Z,0.70
2019-04-26T05:13:05.723Z,0.40
2019-04-26T05:14:05.685Z,0.90
2019-04-26T05:15:05.671Z,0.80
2019-04-26T05:16:05.657Z,0.70
2019-04-26T05:17:05.640Z,0.70
2019-04-26T05:18:05.653Z,1.10
2019-04-26T05:19:05.614Z,0.70
2019-04-26T05:20:05.634Z,0.80
2019-04-26T05:21:05.601Z,0.90
2019-04-26T05:22:05.591Z,0.60
2019-04-26T05:23:05.581Z,1.10
2019-04-26T05:24:05.562Z,1.20
2019-04-26T05:25:05.599Z,1.10
2019-04-26T05:26:05.537Z,1.10
2019-04-26T05:27:05.530Z,0.40
2019-04-26T05:28:05.549Z,0.90
2019-04-26T05:29:05.509Z,0.80
2019-04-26T05:30:05.499Z,1.40
2019-04-26T05:31:05.542Z,0.70
2019-04-26T05:32:05.482Z,0.80
2019-04-26T05:33:05.489Z,1.20
2019-04-26T05:34:05.473Z,1.30
2019-04-26T05:35:05.448Z,0.80
2019-04-26T05:36:05.466Z,1.00
2019-04-26T05:37:05.415Z,0.80
2019-04-26T05:38:17.757Z,1.00
2019-04-26T05:39:06.443Z,1.30
2019-04-26T05:40:05.417Z,1.10
2019-04-26T05:41:05.396Z,0.90
2019-04-26T05:42:05.366Z,0.80
2019-04-26T05:43:05.348Z,0.80
2019-04-26T05:44:05.438Z,0.70
2019-04-26T05:45:05.339Z,1.20
2019-04-26T05:46:05.317Z,0.70
2019-04-26T05:47:05.313Z,1.20
2019-04-26T05:48:11.459Z,0.80
2019-04-26T05:49:06.310Z,1.40
2019-04-26T05:50:05.275Z,0.90
2019-04-26T05:51:05.277Z,1.90
2019-04-26T05:52:05.259Z,0.90
2019-04-26T05:53:05.256Z,1.00
2019-04-26T05:54:05.282Z,0.70
2019-04-26T05:55:05.284Z,0.80
2019-04-26T05:56:05.243Z,0.80
2019-04-26T05:57:05.194Z,0.90
2019-04-26T05:58:05.232Z,0.70
2019-04-26T05:59:05.177Z,0.70
2019-04-26T06:00:05.197Z,0.90
2019-04-26T06:01:05.150Z,1.20
2019-04-26T06:02:05.134Z,1.20
2019-04-26T06:03:05.124Z,1.00
2019-04-26T06:04:05.113Z,0.60
2019-04-26T06:05:05.154Z,1.50
2019-04-26T06:06:05.525Z,1.20
2019-04-26T06:07:05.086Z,0.40
2019-04-26T06:08:05.067Z,1.20
2019-04-26T06:09:05.057Z,0.60
2019-04-26T06:10:05.067Z,1.30
2019-04-26T06:11:05.037Z,1.10
2019-04-26T06:12:05.058Z,0.80
2019-04-26T06:13:05.015Z,1.10
2019-04-26T06:14:04.998Z,0.80
2019-04-26T06:15:04.987Z,1.20
2019-04-26T06:16:05.006Z,0.60
2019-04-26T06:17:04.971Z,1.00
2019-04-26T06:18:04.963Z,0.90
2019-04-26T06:19:04.953Z,0.50
2019-04-26T06:20:04.973Z,0.60
2019-04-26T06:21:04.929Z,0.50
2019-04-26T06:22:04.912Z,0.70
2019-04-26T06:23:04.899Z,0.80
2019-04-26T06:24:04.898Z,0.50
2019-04-26T06:25:04.909Z,1.10
2019-04-26T06:27:13.533Z,1.30
2019-04-26T06:28:05.856Z,0.80
2019-04-26T06:29:05.340Z,2.10
2019-04-26T06:30:04.851Z,0.60
2019-04-26T06:31:04.819Z,0.70
2019-04-26T06:32:04.798Z,0.70
2019-04-26T06:33:06.243Z,0.70
2019-04-26T06:34:04.816Z,0.60
2019-04-26T06:35:04.768Z,0.80
2019-04-26T06:36:04.806Z,0.50
2019-04-26T06:37:04.745Z,0.90
2019-04-26T06:38:04.737Z,0.70
2019-04-26T06:39:04.727Z,0.80
2019-04-26T06:40:04.723Z,0.90
2019-04-26T06:41:04.741Z,0.60
2019-04-26T06:42:05.177Z,0.70
2019-04-26T06:43:05.154Z,0.30
2019-04-26T06:45:05.800Z,0.70
2019-04-26T06:46:04.799Z,1.10
2019-04-26T06:47:04.777Z,0.20
2019-04-26T06:48:04.736Z,0.20
2019-04-26T06:49:05.472Z,0.60
2019-04-26T06:50:05.559Z,0.80
2019-04-26T06:51:04.910Z,0.80
2019-04-26T06:52:05.049Z,1.00
2019-04-26T06:53:04.631Z,0.20
2019-04-26T06:54:05.530Z,0.60
2019-04-26T06:55:04.553Z,0.90
2019-04-26T06:56:05.042Z,0.70
2019-04-26T06:57:10.675Z,1.00
2019-04-26T06:58:05.509Z,0.50
2019-04-26T06:59:04.502Z,0.90
2019-04-26T07:00:04.508Z,0.90
2019-04-26T07:01:05.403Z,0.60
2019-04-26T07:02:04.498Z,0.50
2019-04-26T07:03:05.495Z,0.70
2019-04-26T07:04:04.479Z,0.80
2019-04-26T07:05:04.809Z,1.20
2019-04-26T07:06:04.582Z,0.70
2019-04-26T07:07:04.639Z,0.80
2019-04-26T07:08:05.036Z,1.10
2019-04-26T07:09:05.370Z,0.40
2019-04-26T07:10:04.427Z,0.80
2019-04-26T07:11:04.806Z,0.60
2019-04-26T07:12:05.190Z,0.70
2019-04-26T07:13:04.341Z,0.80
2019-04-26T07:14:04.786Z,0.80
2019-04-26T07:15:04.318Z,0.30
2019-04-26T07:16:17.773Z,0.50
2019-04-26T07:17:05.320Z,0.70
2019-04-26T07:18:04.441Z,0.80
2019-04-26T07:19:04.270Z,0.50
2019-04-26T07:20:04.838Z,0.30
2019-04-26T07:21:04.547Z,0.50
2019-04-26T07:22:04.266Z,0.80
2019-04-26T07:23:04.237Z,0.80
2019-04-26T07:24:04.220Z,0.80
2019-04-26T07:25:04.210Z,0.70
2019-04-26T07:26:04.213Z,0.50
2019-04-26T07:27:05.031Z,0.90
2019-04-26T07:28:09.018Z,0.90
2019-04-26T07:29:05.165Z,0.40
2019-04-26T07:30:05.181Z,0.60
2019-04-26T07:31:04.194Z,0.30
2019-04-26T07:32:05.244Z,0.50
2019-04-26T07:33:04.214Z,0.40
2019-04-26T07:34:05.150Z,0.30
2019-04-26T07:35:04.592Z,0.70
2019-04-26T07:36:05.372Z,0.70
2019-04-26T07:37:04.646Z,0.90
2019-04-26T07:38:04.823Z,0.70
2019-04-26T07:39:15.679Z,0.60
2019-04-26T07:40:05.044Z,0.60
2019-04-26T07:41:05.140Z,1.70
2019-04-26T07:42:05.196Z,1.00
2019-04-26T07:43:04.013Z,1.60
2019-04-26T07:44:04.101Z,1.20
2019-04-26T07:45:03.989Z,0.90
2019-04-26T07:46:04.115Z,0.90
2019-04-26T07:47:04.179Z,0.60
2019-04-26T07:48:03.964Z,0.70
2019-04-26T07:49:04.207Z,0.50
2019-04-26T07:50:05.045Z,0.40
2019-04-26T07:51:04.410Z,1.20
2019-04-26T07:52:04.313Z,0.40
2019-04-26T07:53:04.971Z,0.40
2019-04-26T07:54:05.002Z,1.10
2019-04-26T07:55:04.874Z,0.50
2019-04-26T07:56:04.928Z,0.70
2019-04-26T07:57:04.601Z,1.50
2019-04-26T07:58:05.187Z,0.50
2019-04-26T07:59:05.586Z,1.20
2019-04-26T08:00:04.251Z,0.80
2019-04-26T08:01:04.043Z,0.60
2019-04-26T08:02:05.047Z,1.00
2019-04-26T08:03:04.155Z,1.10
2019-04-26T08:04:04.334Z,1.00
2019-04-26T08:05:04.725Z,1.00
2019-04-26T08:06:04.533Z,1.50
2019-04-26T08:07:04.863Z,1.30
2019-04-26T08:08:04.228Z,1.00
2019-04-26T08:09:04.771Z,1.60
2019-04-26T08:10:04.996Z,0.70
2019-04-26T08:11:04.578Z,1.30
2019-04-26T08:12:05.000Z,1.00
2019-04-26T08:13:05.008Z,0.50
2019-04-26T08:14:04.640Z,0.40
2019-04-26T08:15:04.718Z,0.70
2019-04-26T08:16:04.842Z,0.80
2019-04-26T08:17:04.799Z,1.30
2019-04-26T08:18:03.870Z,1.10
2019-04-26T08:19:03.974Z,1.10
2019-04-26T08:20:06.908Z,0.70
2019-04-26T08:21:09.957Z,0.70
2019-04-26T08:22:14.880Z,0.80
2019-04-26T08:23:08.631Z,1.20
2019-04-26T08:24:05.205Z,0.80
2019-04-26T08:25:03.573Z,0.90
2019-04-26T08:26:03.541Z,1.20
2019-04-26T08:27:13.755Z,1.10
2019-04-26T08:28:05.618Z,0.60
2019-04-26T08:29:03.506Z,1.50
2019-04-26T08:30:07.632Z,0.60
2019-04-26T08:31:05.938Z,1.00
2019-04-26T08:32:03.476Z,1.00
2019-04-26T08:33:07.569Z,0.70
2019-04-26T08:34:04.452Z,1.30
2019-04-26T08:35:08.239Z,1.40
2019-04-26T08:36:04.476Z,1.80
2019-04-26T08:37:03.442Z,0.70
2019-04-26T08:38:07.967Z,0.50
2019-04-26T08:39:04.486Z,1.50
2019-04-26T08:40:03.381Z,1.10
2019-04-26T08:41:05.010Z,1.40
2019-04-26T08:42:03.378Z,1.40
2019-04-26T08:43:03.350Z,0.80
2019-04-26T08:44:05.574Z,1.10
2019-04-26T08:45:04.383Z,0.70
2019-04-26T08:46:04.341Z,1.50
2019-04-26T08:47:05.983Z,1.00
2019-04-26T08:48:04.289Z,0.50
2019-04-26T08:49:06.362Z,0.40
2019-04-26T08:50:03.271Z,0.30
2019-04-26T08:51:03.342Z,1.20
2019-04-26T08:52:13.921Z,0.80
2019-04-26T08:53:04.241Z,1.00
2019-04-26T08:54:03.237Z,0.80
2019-04-26T08:55:03.217Z,1.00
2019-04-26T08:56:03.241Z,1.10
2019-04-26T08:57:03.246Z,1.30
2019-04-26T08:58:03.179Z,1.10
2019-04-26T08:59:03.165Z,1.20
2019-04-26T09:00:03.172Z,1.20
2019-04-26T09:01:03.150Z,0.60
2019-04-26T09:02:03.180Z,1.10
2019-04-26T09:03:11.261Z,1.30
2019-04-26T09:04:04.159Z,1.00
2019-04-26T09:05:03.104Z,1.40
2019-04-26T09:06:03.099Z,0.70
2019-04-26T09:07:03.135Z,0.80
2019-04-26T09:08:04.032Z,0.70
2019-04-26T09:09:03.057Z,1.20
2019-04-26T09:10:10.704Z,0.70
2019-04-26T09:11:04.060Z,1.10
2019-04-26T09:12:03.833Z,0.70
2019-04-26T09:13:03.013Z,0.70
2019-04-26T09:14:02.996Z,0.50
2019-04-26T09:15:03.003Z,0.70
2019-04-26T09:16:03.093Z,1.30
2019-04-26T09:17:03.000Z,0.50
2019-04-26T09:18:06.133Z,0.70
2019-04-26T09:19:02.951Z,0.80
2019-04-26T09:20:07.017Z,0.70
2019-04-26T09:21:02.924Z,0.50
2019-04-26T09:22:12.917Z,1.40
2019-04-26T09:23:04.998Z,1.40
2019-04-26T09:24:02.898Z,1.00
2019-04-26T09:25:02.882Z,1.10
2019-04-26T09:26:02.907Z,0.50
2019-04-26T09:27:02.894Z,0.70
2019-04-26T09:28:02.888Z,0.70
2019-04-26T09:29:02.834Z,0.70
2019-04-26T09:30:05.157Z,0.90
2019-04-26T09:31:02.844Z,1.00
2019-04-26T09:32:02.796Z,0.60
2019-04-26T09:33:03.055Z,0.60
2019-04-26T09:34:06.391Z,1.10
2019-04-26T09:35:03.760Z,1.10
2019-04-26T09:36:02.755Z,1.00
2019-04-26T09:37:02.773Z,0.80
2019-04-26T09:38:02.741Z,0.70
2019-04-26T09:39:03.839Z,0.60
2019-04-26T09:40:10.193Z,0.80
2019-04-26T09:41:03.696Z,0.90
2019-04-26T09:42:05.979Z,1.10
2019-04-26T09:43:03.701Z,1.30
2019-04-26T09:44:02.666Z,1.30
2019-04-26T09:45:02.654Z,1.00
2019-04-26T09:46:02.665Z,0.70
2019-04-26T09:47:02.666Z,1.10
2019-04-26T09:48:02.658Z,0.90
2019-04-26T09:49:03.042Z,1.10
2019-04-26T09:50:02.601Z,1.20
2019-04-26T09:51:02.629Z,0.70
2019-04-26T09:52:02.573Z,0.90
2019-04-26T09:53:02.595Z,0.80
2019-04-26T09:54:02.557Z,1.70
2019-04-26T09:55:02.544Z,0.70
2019-04-26T09:56:02.553Z,2.20
2019-04-26T09:57:02.517Z,0.90
2019-04-26T09:58:02.550Z,1.00
2019-04-26T09:59:05.690Z,1.60
2019-04-26T10:00:02.492Z,1.60
2019-04-26T10:01:02.485Z,1.30
2019-04-26T10:02:02.472Z,1.30
2019-04-26T10:03:05.437Z,1.50
2019-04-26T10:04:03.444Z,0.70
2019-04-26T10:05:02.429Z,1.00
2019-04-26T10:06:02.425Z,1.60
2019-04-26T10:07:03.291Z,1.10
2019-04-26T10:08:02.449Z,0.90
2019-04-26T10:09:02.392Z,1.20
2019-04-26T10:10:02.376Z,1.00
2019-04-26T10:11:05.699Z,0.70
2019-04-26T10:12:03.351Z,1.10
2019-04-26T10:13:02.366Z,0.70
2019-04-26T10:14:02.332Z,1.20
2019-04-26T10:15:02.364Z,1.30
2019-04-26T10:16:02.869Z,1.30
2019-04-26T10:17:02.311Z,1.20
2019-04-26T10:18:02.323Z,1.40
2019-04-26T10:19:02.285Z,1.20
2019-04-26T10:20:02.266Z,0.80
2019-04-26T10:21:02.257Z,1.10
2019-04-26T10:22:02.251Z,2.40
2019-04-26T10:23:02.291Z,9.30
2019-04-26T10:24:02.224Z,1.60
2019-04-26T10:25:07.077Z,1.20
2019-04-26T10:26:03.206Z,1.30
2019-04-26T10:27:03.451Z,3.10
2019-04-26T10:28:02.268Z,1.30
2019-04-26T10:29:02.200Z,0.90
2019-04-26T10:30:08.018Z,0.80
2019-04-26T10:31:03.149Z,0.80
2019-04-26T10:32:02.132Z,0.50
2019-04-26T10:33:03.306Z,0.80
2019-04-26T10:34:02.146Z,1.00
2019-04-26T10:35:02.110Z,1.10
2019-04-26T10:36:02.094Z,1.60
2019-04-26T10:37:06.230Z,0.90
2019-04-26T10:38:03.071Z,1.10
2019-04-26T10:39:02.280Z,0.90
2019-04-26T10:40:02.058Z,0.90
2019-04-26T10:41:02.046Z,1.20
2019-04-26T10:42:02.039Z,0.90
2019-04-26T10:43:02.011Z,1.20
2019-04-26T10:44:02.029Z,1.30
2019-04-26T10:45:02.001Z,0.90
2019-04-26T10:46:01.983Z,1.90
2019-04-26T10:47:04.409Z,1.20
2019-04-26T10:48:01.961Z,1.00
2019-04-26T10:49:08.965Z,1.20
2019-04-26T10:50:02.946Z,1.20
2019-04-26T10:51:03.365Z,0.80
2019-04-26T10:52:01.930Z,1.00
2019-04-26T10:53:01.908Z,1.00
2019-04-26T10:54:05.931Z,0.80
2019-04-26T10:55:02.896Z,1.50
2019-04-26T10:56:01.874Z,1.20
2019-04-26T10:57:01.859Z,1.20
2019-04-26T10:58:01.851Z,1.10
2019-04-26T10:59:01.894Z,0.70
2019-04-26T11:00:01.824Z,0.90
2019-04-26T11:01:01.815Z,1.00
2019-04-26T11:02:01.815Z,0.80
2019-04-26T11:03:04.623Z,1.40
2019-04-26T11:04:01.821Z,1.10
2019-04-26T11:05:01.795Z,1.10
2019-04-26T11:06:01.759Z,0.80
2019-04-26T11:07:02.246Z,1.00
2019-04-26T11:08:01.737Z,1.00
2019-04-26T11:09:01.757Z,1.40
2019-04-26T11:10:03.046Z,0.80
2019-04-26T11:11:01.704Z,1.00
2019-04-26T11:12:01.704Z,0.70
2019-04-26T11:13:01.691Z,1.30
2019-04-26T11:14:01.715Z,0.80
2019-04-26T11:15:01.679Z,0.90
2019-04-26T11:16:02.361Z,1.40
2019-04-26T11:17:02.636Z,1.10
2019-04-26T11:18:01.630Z,0.80
2019-04-26T11:19:02.258Z,0.50
2019-04-26T11:20:01.707Z,1.30
2019-04-26T11:21:01.594Z,1.10
2019-04-26T11:22:01.600Z,1.20
2019-04-26T11:23:01.572Z,1.00
2019-04-26T11:24:01.576Z,1.30
2019-04-26T11:25:01.581Z,0.80
2019-04-26T11:26:02.824Z,0.60
2019-04-26T11:27:01.539Z,0.90
2019-04-26T11:28:01.538Z,0.90
2019-04-26T11:29:01.504Z,1.10
2019-04-26T11:30:11.163Z,1.30
2019-04-26T11:31:02.499Z,0.80
2019-04-26T11:32:02.684Z,1.10
2019-04-26T11:33:01.464Z,0.50
2019-04-26T11:34:05.565Z,1.40
2019-04-26T11:35:01.516Z,0.60
2019-04-26T11:36:03.280Z,0.50
2019-04-26T11:37:02.439Z,0.70
2019-04-26T11:38:01.515Z,1.30
2019-04-26T11:39:05.347Z,0.80
2019-04-26T11:40:02.458Z,1.50
2019-04-26T11:41:06.119Z,1.20
2019-04-26T11:42:02.374Z,0.80
2019-04-26T11:43:01.372Z,1.60
2019-04-26T11:44:01.347Z,1.30
2019-04-26T11:45:06.409Z,0.70
2019-04-26T11:46:04.387Z,0.90
2019-04-26T11:47:03.271Z,1.10
2019-04-26T11:48:03.285Z,0.80
2019-04-26T11:49:03.153Z,0.70
2019-04-26T11:50:02.452Z,1.20
2019-04-26T11:51:01.264Z,0.70
2019-04-26T11:52:02.917Z,1.30
2019-04-26T11:53:01.240Z,1.50
2019-04-26T11:54:01.236Z,0.70
2019-04-26T11:55:01.249Z,1.20
2019-04-26T11:56:04.644Z,1.60
2019-04-26T11:57:01.204Z,1.10
2019-04-26T11:58:01.192Z,0.80
2019-04-26T11:59:01.180Z,0.50
2019-04-26T12:00:05.017Z,0.70
2019-04-26T12:01:01.163Z,3.70
2019-04-26T12:02:01.145Z,2.70
2019-04-26T12:03:01.137Z,1.90
2019-04-26T12:04:01.134Z,6.50
2019-04-26T12:05:01.149Z,2.40
2019-04-26T12:06:01.108Z,1.40
2019-04-26T12:07:01.100Z,1.20
2019-04-26T12:08:01.095Z,0.90
2019-04-26T12:09:01.086Z,0.60
2019-04-26T12:10:01.071Z,1.00
2019-04-26T12:11:01.092Z,0.70
2019-04-26T12:12:04.764Z,0.90
2019-04-26T12:13:05.766Z,1.20
2019-04-26T12:14:03.923Z,1.20
2019-04-26T12:15:03.850Z,0.90
2019-04-26T12:16:02.020Z,1.00
2019-04-26T12:17:01.318Z,1.10
2019-04-26T12:18:01.010Z,0.60
2019-04-26T12:19:00.973Z,0.80
2019-04-26T12:20:00.948Z,0.50
2019-04-26T12:21:02.070Z,0.90
2019-04-26T12:22:04.332Z,1.30
2019-04-26T12:23:01.925Z,1.30
2019-04-26T12:24:00.915Z,0.80
2019-04-26T12:25:03.396Z,1.10
2019-04-26T12:26:01.903Z,1.20
2019-04-26T12:27:00.932Z,0.60
2019-04-26T12:28:01.985Z,0.80
2019-04-26T12:29:00.844Z,0.60
2019-04-26T12:30:00.841Z,1.30
2019-04-26T12:31:00.863Z,1.20
2019-04-26T12:32:00.821Z,1.60
2019-04-26T12:33:00.803Z,0.90
2019-04-26T12:34:00.794Z,0.70
2019-04-26T12:35:00.782Z,1.20
2019-04-26T12:36:00.804Z,0.90
2019-04-26T12:37:00.828Z,0.90
2019-04-26T12:38:00.747Z,1.00
2019-04-26T12:39:02.153Z,1.50
2019-04-26T12:40:00.728Z,0.50
2019-04-26T12:41:00.755Z,0.80
2019-04-26T12:42:00.713Z,1.00
2019-04-26T12:43:00.698Z,0.70
2019-04-26T12:44:03.295Z,0.40
2019-04-26T12:45:00.673Z,1.40
2019-04-26T12:46:00.754Z,1.20
2019-04-26T12:47:03.459Z,0.60
2019-04-26T12:48:00.639Z,0.70
2019-04-26T12:49:00.627Z,0.80
2019-04-26T12:50:00.627Z,1.10
2019-04-26T12:51:00.601Z,0.80
2019-04-26T12:52:00.628Z,0.80
2019-04-26T12:53:00.592Z,1.00
2019-04-26T12:54:03.843Z,1.00
2019-04-26T12:55:01.561Z,1.10
2019-04-26T12:56:00.555Z,0.70
2019-04-26T12:57:01.685Z,0.40
2019-04-26T12:58:00.536Z,0.60
2019-04-26T12:59:00.515Z,0.90
2019-04-26T13:00:01.809Z,1.10
2019-04-26T13:01:00.495Z,0.70
2019-04-26T13:02:05.878Z,1.00
2019-04-26T13:03:01.473Z,0.30
2019-04-26T13:04:02.653Z,0.80
2019-04-26T13:05:00.447Z,0.90
2019-04-26T13:06:00.527Z,0.60
2019-04-26T13:07:02.337Z,0.50
2019-04-26T13:08:01.427Z,1.00
2019-04-26T13:09:00.410Z,1.00
2019-04-26T13:10:01.002Z,0.90
2019-04-26T13:11:00.381Z,0.70
2019-04-26T13:12:00.393Z,0.80
2019-04-26T13:13:00.362Z,1.10
2019-04-26T13:14:00.349Z,0.90
2019-04-26T13:15:00.339Z,1.10
2019-04-26T13:16:00.339Z,0.80
2019-04-26T13:17:01.180Z,0.70
2019-04-26T13:18:00.304Z,0.90
2019-04-26T13:19:00.293Z,0.80
2019-04-26T13:20:00.276Z,0.90